createdAt,value
2022-12-01T00:01:19.389Z,41.47
2022-12-01T00:03:48.221Z,36.38
2022-12-01T00:06:17.866Z,44.17
2022-12-01T00:09:08.110Z,40.05
2022-12-01T00:11:37.352Z,40.75
2022-12-01T00:14:06.830Z,44.75
2022-12-01T00:16:36.233Z,37.20
2022-12-01T00:19:03.006Z,43.40
2022-12-01T00:21:29.574Z,33.40
2022-12-01T00:23:57.641Z,40.80
2022-12-01T00:26:25.229Z,43.78
2022-12-01T00:28:53.561Z,39.30
2022-12-01T00:31:20.797Z,38.88
2022-12-01T00:33:47.437Z,42.45
2022-12-01T00:36:14.032Z,46.45
2022-12-01T00:38:40.545Z,53.63
2022-12-01T00:41:07.665Z,45.78
2022-12-01T00:43:34.192Z,51.83
2022-12-01T00:46:00.960Z,43.17
2022-12-01T00:48:27.955Z,39.15
2022-12-01T00:50:55.360Z,49.35
2022-12-01T00:53:22.140Z,44.60
2022-12-01T00:55:49.098Z,42.17
2022-12-01T00:58:15.708Z,38.05
2022-12-01T01:00:45.248Z,47.35
2022-12-01T01:03:11.833Z,47.35
2022-12-01T01:05:39.925Z,42.72
2022-12-01T01:08:10.006Z,40.05
2022-12-01T01:10:44.615Z,38.13
2022-12-01T01:13:12.140Z,34.72
2022-12-01T01:15:38.778Z,39.33
2022-12-01T01:18:06.044Z,38.55
2022-12-01T01:20:35.226Z,37.00
2022-12-01T01:23:01.792Z,38.15
2022-12-01T01:25:31.246Z,40.05
2022-12-01T01:28:00.080Z,43.13
2022-12-01T01:30:26.819Z,35.35
2022-12-01T01:32:58.322Z,38.25
2022-12-01T01:35:24.848Z,39.13
2022-12-01T01:37:51.876Z,34.47
2022-12-01T01:40:18.808Z,42.50
2022-12-01T01:42:45.628Z,42.67
2022-12-01T01:45:24.503Z,38.45
2022-12-01T01:47:53.797Z,46.75
2022-12-01T01:50:26.736Z,42.05
2022-12-01T01:52:59.729Z,42.70
2022-12-01T01:55:27.359Z,43.70
2022-12-01T01:57:54.048Z,44.55
2022-12-01T02:00:22.235Z,44.58
2022-12-01T02:02:54.339Z,44.58
2022-12-01T02:05:28.014Z,46.10
2022-12-01T02:07:57.238Z,47.53
2022-12-01T02:10:51.599Z,45.63
2022-12-01T02:13:27.802Z,41.88
2022-12-01T02:16:11.556Z,52.10
2022-12-01T02:18:59.715Z,53.40
2022-12-01T02:21:52.883Z,49.22
2022-12-01T02:24:54.077Z,47.40
2022-12-01T02:27:56.188Z,54.00
2022-12-01T02:30:51.218Z,49.47
2022-12-01T02:33:29.470Z,56.10
2022-12-01T02:36:23.130Z,50.75
2022-12-01T02:39:07.239Z,44.65
2022-12-01T02:42:03.501Z,48.13
2022-12-01T02:44:39.002Z,49.80
2022-12-01T02:47:12.963Z,50.45
2022-12-01T02:49:45.156Z,43.65
2022-12-01T02:52:14.258Z,45.88
2022-12-01T02:54:42.869Z,47.20
2022-12-01T02:57:12.692Z,46.08
2022-12-01T02:59:42.485Z,50.75
2022-12-01T03:02:42.148Z,50.25
2022-12-01T03:05:23.995Z,48.08
2022-12-01T03:08:04.132Z,42.90
2022-12-01T03:10:52.677Z,47.47
2022-12-01T03:13:43.208Z,40.40
2022-12-01T03:16:22.285Z,39.17
2022-12-01T03:19:00.434Z,40.30
2022-12-01T03:21:37.860Z,37.42
2022-12-01T03:24:09.137Z,38.65
2022-12-01T03:26:37.696Z,41.50
2022-12-01T03:29:20.528Z,44.25
2022-12-01T03:31:55.193Z,40.92
2022-12-01T03:34:30.550Z,39.30
2022-12-01T03:37:02.141Z,39.70
2022-12-01T03:39:35.235Z,41.33
2022-12-01T03:42:20.649Z,39.75
2022-12-01T03:45:01.139Z,49.33
2022-12-01T03:47:32.519Z,43.20
2022-12-01T03:50:00.545Z,41.70
2022-12-01T03:53:06.108Z,40.40
2022-12-01T03:55:40.829Z,43.78
2022-12-01T03:58:17.573Z,42.00
2022-12-01T04:00:46.405Z,42.95
2022-12-01T04:03:23.068Z,48.55
2022-12-01T04:05:49.757Z,40.80
2022-12-01T04:08:16.300Z,45.33
2022-12-01T04:10:43.279Z,42.55
2022-12-01T04:13:16.821Z,45.85
2022-12-01T04:15:43.734Z,44.22
2022-12-01T04:18:12.552Z,39.22
2022-12-01T04:20:39.096Z,43.78
2022-12-01T04:23:05.667Z,41.65
2022-12-01T04:25:32.238Z,45.83
2022-12-01T04:27:58.766Z,47.75
2022-12-01T04:30:25.374Z,49.50
2022-12-01T04:32:52.006Z,46.72
2022-12-01T04:35:18.583Z,51.47
2022-12-01T04:37:47.446Z,36.40
2022-12-01T04:40:14.105Z,44.25
2022-12-01T04:42:40.681Z,47.85
2022-12-01T04:45:07.792Z,49.00
2022-12-01T04:47:34.305Z,45.78
2022-12-01T04:50:03.337Z,50.30
2022-12-01T04:52:35.090Z,48.75
2022-12-01T04:55:04.605Z,41.33
2022-12-01T04:57:31.156Z,53.95
2022-12-01T04:59:57.757Z,49.30
2022-12-01T05:02:24.379Z,45.67
2022-12-01T05:04:51.012Z,50.10
2022-12-01T05:07:18.247Z,50.53
2022-12-01T05:09:44.793Z,47.58
2022-12-01T05:12:13.670Z,51.85
2022-12-01T05:14:40.188Z,45.60
2022-12-01T05:17:06.725Z,51.78
2022-12-01T05:19:51.864Z,47.88
2022-12-01T05:22:26.936Z,48.45
2022-12-01T05:25:07.487Z,53.08
2022-12-01T05:27:34.033Z,51.72
2022-12-01T05:30:00.535Z,49.03
2022-12-01T05:32:27.339Z,42.92
2022-12-01T05:34:53.821Z,51.05
2022-12-01T05:37:20.371Z,52.00
2022-12-01T05:39:47.232Z,46.30
2022-12-01T05:42:13.914Z,50.33
2022-12-01T05:44:40.458Z,55.03
2022-12-01T05:47:07.040Z,47.13
2022-12-01T05:49:33.524Z,52.00
2022-12-01T05:52:00.110Z,50.78
2022-12-01T05:54:31.658Z,50.25
2022-12-01T05:56:58.270Z,51.45
2022-12-01T05:59:26.873Z,54.67
2022-12-01T06:01:53.555Z,50.05
2022-12-01T06:04:20.289Z,46.53
2022-12-01T06:06:48.916Z,48.53
2022-12-01T06:09:18.316Z,50.67
2022-12-01T06:11:47.192Z,52.67
2022-12-01T06:14:15.609Z,53.78
2022-12-01T06:16:42.280Z,46.17
2022-12-01T06:19:08.817Z,49.45
2022-12-01T06:21:35.367Z,58.35
2022-12-01T06:24:01.912Z,50.05
2022-12-01T06:26:28.429Z,53.40
2022-12-01T06:28:58.437Z,49.92
2022-12-01T06:31:24.963Z,45.05
2022-12-01T06:33:51.591Z,49.53
2022-12-01T06:36:18.313Z,44.53
2022-12-01T06:38:44.980Z,49.40
2022-12-01T06:41:11.588Z,54.35
2022-12-01T06:43:38.313Z,53.60
2022-12-01T06:46:05.846Z,48.70
2022-12-01T06:48:32.707Z,53.67
2022-12-01T06:51:02.281Z,47.83
2022-12-01T06:53:29.145Z,46.60
2022-12-01T06:56:03.722Z,53.17
2022-12-01T06:58:32.881Z,45.78
2022-12-01T07:01:00.009Z,49.20
2022-12-01T07:03:27.425Z,52.40
2022-12-01T07:05:59.280Z,48.90
2022-12-01T07:08:31.336Z,52.88
2022-12-01T07:11:10.141Z,60.05
2022-12-01T07:13:40.571Z,55.53
2022-12-01T07:16:10.493Z,48.85
2022-12-01T07:19:09.938Z,49.70
2022-12-01T07:21:41.026Z,54.05
2022-12-01T07:24:22.671Z,47.67
2022-12-01T07:26:50.816Z,49.47
2022-12-01T07:29:19.724Z,53.10
2022-12-01T07:31:50.411Z,55.42
2022-12-01T07:34:18.352Z,47.25
2022-12-01T07:36:49.683Z,50.22
2022-12-01T07:39:16.325Z,46.05
2022-12-01T07:41:43.082Z,51.05
2022-12-01T07:44:11.177Z,55.13
2022-12-01T07:46:40.386Z,52.33
2022-12-01T07:49:08.080Z,46.20
2022-12-01T07:51:35.114Z,46.45
2022-12-01T07:54:03.893Z,46.22
2022-12-01T07:56:33.916Z,47.05
2022-12-01T07:59:02.771Z,57.75
2022-12-01T08:01:30.119Z,58.90
2022-12-01T08:03:59.215Z,58.55
2022-12-01T08:06:26.834Z,51.50
2022-12-01T08:08:53.344Z,49.85
2022-12-01T08:11:26.048Z,45.25
2022-12-01T08:13:53.928Z,53.30
2022-12-01T08:16:22.932Z,51.72
2022-12-01T08:18:50.372Z,58.05
2022-12-01T08:21:19.222Z,50.15
2022-12-01T08:23:46.055Z,56.13
2022-12-01T08:26:15.333Z,47.83
2022-12-01T08:28:42.983Z,48.60
2022-12-01T08:31:22.027Z,45.45
2022-12-01T08:33:50.630Z,54.42
2022-12-01T08:36:17.766Z,49.00
2022-12-01T08:38:45.842Z,44.40
2022-12-01T08:41:13.536Z,48.47
2022-12-01T08:43:57.251Z,45.53
2022-12-01T08:46:26.106Z,45.85
2022-12-01T08:48:55.135Z,48.08
2022-12-01T08:51:21.944Z,47.60
2022-12-01T08:53:49.789Z,48.60
2022-12-01T08:56:24.836Z,44.65
2022-12-01T08:58:51.786Z,41.35
2022-12-01T09:01:19.470Z,47.63
2022-12-01T09:03:46.496Z,47.92
2022-12-01T09:06:13.024Z,43.30
2022-12-01T09:08:40.045Z,46.15
2022-12-01T09:11:17.964Z,44.45
2022-12-01T09:13:49.944Z,49.88
2022-12-01T09:16:19.773Z,50.38
2022-12-01T09:18:47.859Z,42.65
2022-12-01T09:21:17.490Z,46.45
2022-12-01T09:23:44.980Z,48.95
2022-12-01T09:26:13.871Z,48.75
2022-12-01T09:28:41.032Z,48.25
2022-12-01T09:31:10.548Z,44.60
2022-12-01T09:33:38.213Z,51.85
2022-12-01T09:36:06.577Z,54.97
2022-12-01T09:38:38.738Z,48.90
2022-12-01T09:41:27.191Z,47.85
2022-12-01T09:44:12.170Z,45.20
2022-12-01T09:46:52.397Z,55.20
2022-12-01T09:49:27.377Z,53.55
2022-12-01T09:52:18.645Z,45.40
2022-12-01T09:54:50.364Z,52.00
2022-12-01T09:57:33.961Z,51.80
2022-12-01T10:00:35.033Z,47.55
2022-12-01T10:03:21.457Z,51.33
2022-12-01T10:06:29.031Z,55.22
2022-12-01T10:09:17.287Z,51.25
2022-12-01T10:11:46.141Z,52.35
2022-12-01T10:14:20.167Z,49.38
2022-12-01T10:17:15.991Z,50.83
2022-12-01T10:19:47.255Z,49.97
2022-12-01T10:22:26.921Z,50.55
2022-12-01T10:25:13.690Z,50.85
2022-12-01T10:28:23.989Z,50.38
2022-12-01T10:30:52.681Z,54.28
2022-12-01T10:33:30.545Z,47.40
2022-12-01T10:35:57.844Z,47.08
2022-12-01T10:38:34.487Z,55.33
2022-12-01T10:41:04.378Z,57.80
2022-12-01T10:43:50.359Z,51.60
2022-12-01T10:46:25.201Z,58.15
2022-12-01T10:48:57.498Z,63.65
2022-12-01T10:51:28.109Z,55.50
2022-12-01T10:54:00.102Z,53.83
2022-12-01T10:56:29.215Z,51.08
2022-12-01T10:58:58.476Z,49.55
2022-12-01T11:01:27.618Z,61.72
2022-12-01T11:04:08.881Z,55.08
2022-12-01T11:06:37.561Z,63.40
2022-12-01T11:09:14.694Z,59.58
2022-12-01T11:11:41.452Z,53.47
2022-12-01T11:14:19.829Z,60.33
2022-12-01T11:16:48.648Z,53.40
2022-12-01T11:19:34.610Z,50.50
2022-12-01T11:22:12.937Z,54.58
2022-12-01T11:24:42.322Z,52.65
2022-12-01T11:27:16.682Z,51.33
2022-12-01T11:29:43.782Z,49.88
2022-12-01T11:32:17.865Z,60.38
2022-12-01T11:34:51.524Z,41.05
2022-12-01T11:37:21.662Z,49.72
2022-12-01T11:39:49.711Z,48.75
2022-12-01T11:42:16.475Z,51.63
2022-12-01T11:45:08.062Z,46.90
2022-12-01T11:47:34.640Z,47.50
2022-12-01T11:50:22.514Z,54.53
2022-12-01T11:52:49.115Z,45.10
2022-12-01T11:55:15.636Z,48.30
2022-12-01T11:57:44.732Z,51.63
2022-12-01T12:00:26.948Z,56.20
2022-12-01T12:03:20.243Z,44.92
2022-12-01T12:06:11.633Z,46.85
2022-12-01T12:08:57.753Z,49.05
2022-12-01T12:11:30.147Z,53.20
2022-12-01T12:14:02.615Z,51.95
2022-12-01T12:16:51.916Z,47.85
2022-12-01T12:20:06.037Z,46.92
2022-12-01T12:22:41.764Z,47.17
2022-12-01T12:25:23.123Z,42.45
2022-12-01T12:28:19.604Z,47.40
2022-12-01T12:31:05.722Z,49.15
2022-12-01T12:33:42.996Z,47.20
2022-12-01T12:36:37.845Z,56.30
2022-12-01T12:39:24.752Z,48.80
2022-12-01T12:41:55.930Z,44.33
2022-12-01T12:44:47.653Z,43.72
2022-12-01T12:47:57.861Z,42.92
2022-12-01T12:50:51.972Z,50.50
2022-12-01T12:53:22.351Z,47.78
2022-12-01T12:55:52.980Z,47.85
2022-12-01T12:58:26.404Z,47.15
2022-12-01T13:01:05.311Z,46.30
2022-12-01T13:03:57.135Z,48.25
2022-12-01T13:06:36.358Z,43.30
2022-12-01T13:09:11.446Z,50.88
2022-12-01T13:11:59.878Z,46.83
2022-12-01T13:14:36.015Z,44.90
2022-12-01T13:17:33.612Z,51.20
2022-12-01T13:20:00.317Z,52.92
2022-12-01T13:22:36.013Z,46.90
2022-12-01T13:25:03.823Z,47.20
2022-12-01T13:27:34.768Z,43.55
2022-12-01T13:30:02.159Z,46.92
2022-12-01T13:32:32.093Z,43.20
2022-12-01T13:35:00.560Z,44.53
2022-12-01T13:37:36.190Z,40.08
2022-12-01T13:40:32.643Z,45.47
2022-12-01T13:43:10.662Z,43.60
2022-12-01T13:45:46.665Z,47.03
2022-12-01T13:52:25.029Z,47.38
2022-12-01T13:55:25.779Z,45.83
2022-12-01T13:58:00.981Z,32.40
2022-12-01T14:00:38.009Z,50.13
2022-12-01T14:06:25.161Z,44.08
2022-12-01T14:09:03.575Z,43.55
2022-12-01T14:11:32.577Z,45.20
2022-12-01T14:14:03.743Z,45.45
2022-12-01T14:16:51.798Z,45.85
2022-12-01T14:19:40.678Z,46.60
2022-12-01T14:22:27.833Z,41.72
2022-12-01T14:24:55.642Z,41.03
2022-12-01T14:27:43.205Z,48.42
2022-12-01T14:30:46.999Z,46.60
2022-12-01T14:33:47.782Z,44.85
2022-12-01T14:36:23.874Z,41.78
2022-12-01T14:38:59.869Z,47.92
2022-12-01T14:41:28.539Z,42.80
2022-12-01T14:44:06.636Z,46.72
2022-12-01T14:47:12.608Z,47.70
2022-12-01T14:49:50.960Z,45.35
2022-12-01T14:52:42.719Z,38.85
2022-12-01T14:55:36.060Z,44.85
2022-12-01T14:58:16.510Z,44.72
2022-12-01T15:01:15.264Z,41.92
2022-12-01T15:04:18.519Z,46.45
2022-12-01T15:07:00.798Z,42.22
2022-12-01T15:09:34.148Z,42.95
2022-12-01T15:12:27.394Z,39.80
2022-12-01T15:14:55.581Z,53.97
2022-12-01T15:17:32.679Z,44.92
2022-12-01T15:19:59.495Z,36.90
2022-12-01T15:22:31.406Z,43.75
2022-12-01T15:25:29.311Z,42.17
2022-12-01T15:28:16.094Z,47.13
2022-12-01T15:30:46.506Z,46.38
2022-12-01T15:33:26.802Z,47.30
2022-12-01T15:35:55.150Z,43.50
2022-12-01T15:38:28.776Z,41.92
2022-12-01T15:43:43.578Z,42.30
2022-12-01T15:46:13.304Z,44.97
2022-12-01T15:48:43.292Z,41.22
2022-12-01T15:51:17.474Z,43.75
2022-12-01T15:53:58.158Z,45.05
2022-12-01T15:56:27.602Z,43.55
2022-12-01T15:58:58.964Z,42.72
2022-12-01T16:01:30.392Z,43.53
2022-12-01T16:04:25.463Z,47.10
2022-12-01T16:06:58.395Z,44.13
2022-12-01T16:09:42.895Z,47.45
2022-12-01T16:12:09.351Z,50.70
2022-12-01T16:14:50.021Z,51.80
2022-12-01T16:17:19.671Z,47.50
2022-12-01T16:19:46.299Z,52.40
2022-12-01T16:22:22.406Z,48.45
2022-12-01T16:24:52.821Z,50.60
2022-12-01T16:27:30.967Z,52.42
2022-12-01T16:30:01.611Z,51.80
2022-12-01T16:32:38.637Z,49.33
2022-12-01T16:35:07.374Z,49.60
2022-12-01T16:37:33.992Z,48.17
2022-12-01T16:40:31.808Z,47.72
2022-12-01T16:42:58.422Z,49.28
2022-12-01T16:45:26.780Z,51.80
2022-12-01T16:47:53.914Z,51.20
2022-12-01T16:50:41.258Z,54.15
2022-12-01T16:53:10.302Z,53.42
2022-12-01T16:55:55.690Z,56.53
2022-12-01T16:58:25.293Z,60.50
2022-12-01T17:00:52.837Z,69.85
2022-12-01T17:03:25.452Z,66.25
2022-12-01T17:05:53.329Z,56.75
2022-12-01T17:08:20.348Z,50.67
2022-12-01T17:10:50.251Z,49.60
2022-12-01T17:13:23.317Z,42.50
2022-12-01T17:15:52.820Z,47.60
2022-12-01T17:18:23.273Z,48.80
2022-12-01T17:21:01.036Z,49.00
2022-12-01T17:23:28.307Z,46.20
2022-12-01T17:25:54.925Z,47.00
2022-12-01T17:28:21.988Z,49.15
2022-12-01T17:30:48.590Z,48.78
2022-12-01T17:33:15.363Z,58.47
2022-12-01T17:35:41.890Z,49.35
2022-12-01T17:38:08.672Z,52.92
2022-12-01T17:40:35.300Z,49.47
2022-12-01T17:43:06.685Z,49.95
2022-12-01T17:45:33.862Z,48.63
2022-12-01T17:48:00.446Z,44.85
2022-12-01T17:50:26.992Z,47.47
2022-12-01T17:52:53.577Z,48.95
2022-12-01T17:55:20.175Z,47.67
2022-12-01T17:57:46.947Z,48.58
2022-12-01T18:00:14.271Z,52.25
2022-12-01T18:02:43.256Z,52.60
2022-12-01T18:05:12.146Z,46.28
2022-12-01T18:07:38.927Z,50.30
2022-12-01T18:10:08.266Z,51.55
2022-12-01T18:12:34.849Z,52.08
2022-12-01T18:15:03.666Z,52.08
2022-12-01T18:17:30.329Z,51.40
2022-12-01T18:19:56.873Z,50.30
2022-12-01T18:22:23.424Z,52.63
2022-12-01T18:24:50.266Z,50.53
2022-12-01T18:27:19.250Z,53.97
2022-12-01T18:29:45.756Z,49.53
2022-12-01T18:32:14.950Z,51.88
2022-12-01T18:34:44.029Z,51.53
2022-12-01T18:37:10.745Z,47.65
2022-12-01T18:39:37.450Z,50.92
2022-12-01T18:42:04.441Z,52.50
2022-12-01T18:44:31.120Z,54.53
2022-12-01T18:46:59.027Z,47.72
2022-12-01T18:49:25.686Z,59.05
2022-12-01T18:51:52.303Z,60.20
2022-12-01T18:54:18.882Z,54.53
2022-12-01T18:56:45.535Z,56.30
2022-12-01T18:59:13.605Z,55.50
2022-12-01T19:01:43.931Z,54.42
2022-12-01T19:04:11.448Z,57.63
2022-12-01T19:06:41.801Z,59.95
2022-12-01T19:09:12.850Z,54.75
2022-12-01T19:11:40.648Z,54.85
2022-12-01T19:14:08.269Z,56.97
2022-12-01T19:16:34.990Z,51.05
2022-12-01T19:19:01.712Z,52.00
2022-12-01T19:21:30.725Z,56.90
2022-12-01T19:23:57.239Z,57.85
2022-12-01T19:26:25.547Z,55.20
2022-12-01T19:28:52.263Z,50.83
2022-12-01T19:31:23.932Z,49.30
2022-12-01T19:33:52.671Z,52.03
2022-12-01T19:36:22.118Z,50.88
2022-12-01T19:38:48.963Z,53.40
2022-12-01T19:41:16.725Z,54.17
2022-12-01T19:43:43.346Z,55.95
2022-12-01T19:46:22.732Z,56.63
2022-12-01T19:48:55.341Z,47.58
2022-12-01T19:51:28.277Z,55.28
2022-12-01T19:53:55.611Z,53.42
2022-12-01T19:56:22.689Z,63.90
2022-12-01T19:58:52.262Z,49.75
2022-12-01T20:01:19.912Z,55.58
2022-12-01T20:03:50.936Z,54.90
2022-12-01T20:06:20.186Z,61.42
2022-12-01T20:08:53.213Z,52.45
2022-12-01T20:11:19.966Z,54.28
2022-12-01T20:13:47.512Z,57.10
2022-12-01T20:16:17.087Z,53.85
2022-12-01T20:18:46.487Z,57.60
2022-12-01T20:21:19.650Z,57.83
2022-12-01T20:23:58.812Z,59.53
2022-12-01T20:26:31.057Z,63.67
2022-12-01T20:29:01.209Z,59.72
2022-12-01T20:31:32.169Z,56.67
2022-12-01T20:34:01.365Z,60.05
2022-12-01T20:36:28.316Z,56.83
2022-12-01T20:38:55.629Z,61.92
2022-12-01T20:41:22.675Z,55.03
2022-12-01T20:43:49.365Z,57.90
2022-12-01T20:46:19.614Z,58.13
2022-12-01T20:48:46.228Z,58.45
2022-12-01T20:51:14.672Z,55.67
2022-12-01T20:53:59.665Z,56.03
2022-12-01T20:56:28.253Z,52.75
2022-12-01T20:58:54.998Z,58.65
2022-12-01T21:01:22.543Z,64.43
2022-12-01T21:03:50.990Z,62.72
2022-12-01T21:06:18.349Z,63.10
2022-12-01T21:08:46.772Z,56.35
2022-12-01T21:11:45.088Z,60.17
2022-12-01T21:15:10.008Z,52.50
2022-12-01T21:17:49.184Z,58.42
2022-12-01T21:20:30.226Z,55.08
2022-12-01T21:23:11.228Z,52.28
2022-12-01T21:25:39.775Z,45.92
2022-12-01T21:28:23.656Z,50.15
2022-12-01T21:30:58.580Z,48.85
2022-12-01T21:33:34.069Z,50.22
2022-12-01T21:36:02.724Z,49.25
2022-12-01T21:38:31.796Z,47.45
2022-12-01T21:40:58.390Z,50.25
2022-12-01T21:43:25.891Z,54.42
2022-12-01T21:45:56.842Z,48.95
2022-12-01T21:48:26.145Z,52.85
2022-12-01T21:51:11.793Z,53.25
2022-12-01T21:53:39.344Z,53.45
2022-12-01T21:56:12.891Z,60.08
2022-12-01T21:58:39.460Z,59.33
2022-12-01T22:01:27.215Z,52.40
2022-12-01T22:04:01.651Z,58.25
2022-12-01T22:06:36.064Z,60.85
2022-12-01T22:09:14.479Z,60.70
2022-12-01T22:11:43.050Z,73.60
2022-12-01T22:14:15.528Z,68.07
2022-12-01T22:16:45.219Z,71.32
2022-12-01T22:19:28.801Z,70.45
2022-12-01T22:22:10.699Z,64.55
2022-12-01T22:24:56.095Z,70.03
2022-12-01T22:27:35.896Z,71.40
2022-12-01T22:30:02.477Z,73.45
2022-12-01T22:32:44.480Z,73.78
2022-12-01T22:35:17.192Z,71.43
2022-12-01T22:38:07.084Z,78.10
2022-12-01T22:40:36.630Z,76.03
2022-12-01T22:43:18.246Z,79.15
2022-12-01T22:45:49.355Z,77.45
2022-12-01T22:48:36.230Z,78.50
2022-12-01T22:51:18.013Z,75.63
2022-12-01T22:53:46.161Z,74.63
2022-12-01T22:56:34.683Z,74.43
2022-12-01T22:59:10.603Z,70.40
2022-12-01T23:02:02.177Z,76.43
2022-12-01T23:04:33.310Z,67.40
2022-12-01T23:07:08.799Z,74.00
2022-12-01T23:09:41.285Z,85.10
2022-12-01T23:12:10.812Z,73.32
2022-12-01T23:14:44.541Z,78.35
2022-12-01T23:17:26.798Z,74.90
2022-12-01T23:20:02.428Z,69.53
2022-12-01T23:22:31.328Z,74.68
2022-12-01T23:25:14.014Z,74.85
2022-12-01T23:27:42.216Z,71.07
2022-12-01T23:30:13.095Z,70.57
2022-12-01T23:32:40.074Z,74.45
2022-12-01T23:35:13.410Z,82.75
2022-12-01T23:37:42.507Z,79.57
2022-12-01T23:40:20.513Z,75.78
2022-12-01T23:42:47.984Z,75.88
2022-12-01T23:45:23.367Z,74.88
2022-12-01T23:47:51.439Z,68.43
2022-12-01T23:50:24.454Z,71.45
2022-12-01T23:52:51.574Z,81.32
2022-12-01T23:55:27.286Z,74.00
2022-12-01T23:57:54.209Z,86.50
